Mt New Conquest — V7GG4 — position and weather

sailwx.info

Track history (hours):
 
Tides and Currents Weather Stations Pressure Air Temp Water Temp Dewpoint Dewpoint Depression Visibility Wind Speed Wind Dir Waves Ship Positions

Mt New Conquest

Last reported at 2016-Dec-03 18:31 UTC. Time now 2016-Dec-08 22:05 UTC.
Position N 09°26' W 079°55'.

Length 228 m; draft 11.8 m.

Type: Tanker. MMSI: 538002089.

Date/timePositionNaut miles runAvg speedWind from/ knotsBaromVisibWave heightAir tempDewpointWater temp
2016-Dec-03 18:31N 09°26' W 079°55'0 0.0
2016-Dec-03 17:28N 09°26' W 079°55'0 0.0
2016-Dec-03 16:31N 09°26' W 079°56'0 0.0
2016-Dec-03 15:31N 09°26' W 079°56'0 0.0
2016-Dec-03 14:31N 09°26' W 079°56'0 0.0
2016-Dec-03 13:31N 09°26' W 079°56'0 0.0
2016-Dec-03 12:31N 09°26' W 079°56'0 0.0
2016-Dec-03 11:28N 09°26' W 079°56'0 0.0
2016-Dec-03 10:22N 09°26' W 079°56'0 0.0
2016-Dec-03 09:31N 09°26' W 079°55'0 0.0
2016-Dec-03 08:31N 09°26' W 079°55'0 0.0
2016-Dec-03 07:28N 09°26' W 079°55'0 0.0
2016-Dec-03 06:31N 09°26' W 079°55'0 0.0
2016-Dec-03 05:31N 09°26' W 079°55'0 0.0
2016-Dec-03 04:28N 09°26' W 079°55'0 0.0
2016-Dec-03 03:28N 09°26' W 079°55'0 0.0
2016-Dec-03 02:28N 09°26' W 079°55'0 0.0
2016-Dec-03 01:31N 09°26' W 079°55'0 0.0
2016-Dec-02 23:31N 09°26' W 079°55'0 0.0
2016-Dec-02 18:16N 09°26' W 079°56'0 0.0
2016-Dec-02 15:28N 09°26' W 079°56'0 0.0
2016-Dec-02 14:10N 09°26' W 079°56'0 0.0
2016-Dec-02 13:31N 09°26' W 079°56'0 0.0
2016-Dec-02 12:31N 09°26' W 079°56'0 0.1
2016-Dec-02 11:31N 09°26' W 079°56'0 0.1
2016-Dec-02 08:28N 09°26' W 079°55'0 0.2
2016-Dec-02 07:31N 09°26' W 079°55'2 1.8
2016-Dec-02 06:33N 09°28' W 079°55'  
2016-Nov-28 21:32N 10°53' W 061°58'1312.8
2016-Nov-28 20:33N 10°44' W 061°49'1413.7
2016-Nov-28 19:33N 10°31' W 061°47'1413.9
2016-Nov-28 18:34N 10°23' W 061°35'6 5.5
2016-Nov-28 17:32N 10°19' W 061°30'0 0.0
2016-Nov-28 16:32N 10°19' W 061°30'0 0.1
2016-Nov-28 15:33N 10°20' W 061°30'1 0.0
2016-Nov-27 05:11N 10°20' W 061°29'0 0.7
2016-Nov-27 04:33N 10°20' W 061°29'1 1.1
2016-Nov-27 03:30N 10°19' W 061°30'0 0.0
2016-Nov-27 02:18N 10°19' W 061°30'0 0.1
2016-Nov-27 01:33N 10°19' W 061°30'0 0.0
2016-Nov-27 00:33N 10°19' W 061°30'0 0.1
2016-Nov-26 23:30N 10°19' W 061°30'0 0.0
2016-Nov-26 22:27N 10°19' W 061°30'0 0.0
2016-Nov-26 21:33N 10°19' W 061°30'0 0.0
2016-Nov-26 20:33N 10°19' W 061°30'0 0.1
2016-Nov-26 19:30N 10°19' W 061°30'3 3.3
2016-Nov-26 18:33N 10°20' W 061°33'7 6.5
2016-Nov-26 17:34N 10°25' W 061°38'1515.3
2016-Nov-26 16:34N 10°37' W 061°47'1313.1
2016-Nov-26 15:33N 10°49' W 061°53'1514.3
2016-Nov-26 14:30N 10°57' W 062°06'  
Track history (hours):
 
Tides and Currents Weather Stations Pressure Air Temp Water Temp Dewpoint Dewpoint Depression Visibility Wind Speed Wind Dir Waves Ship Positions

Mt New Conquest

Last reported at 2016-Dec-03 18:31 UTC. Time now 2016-Dec-08 22:05 UTC.
Position N 09°26' W 079°55'.

Length 228 m; draft 11.8 m.

Type: Tanker. MMSI: 538002089.

Date/timePositionNaut miles runAvg speedWind from/ knotsBaromVisibWave heightAir tempDewpointWater temp
2016-Dec-03 18:31N 09°26' W 079°55'0 0.0
2016-Dec-03 17:28N 09°26' W 079°55'0 0.0
2016-Dec-03 16:31N 09°26' W 079°56'0 0.0
2016-Dec-03 15:31N 09°26' W 079°56'0 0.0
2016-Dec-03 14:31N 09°26' W 079°56'0 0.0
2016-Dec-03 13:31N 09°26' W 079°56'0 0.0
2016-Dec-03 12:31N 09°26' W 079°56'0 0.0
2016-Dec-03 11:28N 09°26' W 079°56'0 0.0
2016-Dec-03 10:22N 09°26' W 079°56'0 0.0
2016-Dec-03 09:31N 09°26' W 079°55'0 0.0
2016-Dec-03 08:31N 09°26' W 079°55'0 0.0
2016-Dec-03 07:28N 09°26' W 079°55'0 0.0
2016-Dec-03 06:31N 09°26' W 079°55'0 0.0
2016-Dec-03 05:31N 09°26' W 079°55'0 0.0
2016-Dec-03 04:28N 09°26' W 079°55'0 0.0
2016-Dec-03 03:28N 09°26' W 079°55'0 0.0
2016-Dec-03 02:28N 09°26' W 079°55'0 0.0
2016-Dec-03 01:31N 09°26' W 079°55'0 0.0
2016-Dec-02 23:31N 09°26' W 079°55'0 0.0
2016-Dec-02 18:16N 09°26' W 079°56'0 0.0
2016-Dec-02 15:28N 09°26' W 079°56'0 0.0
2016-Dec-02 14:10N 09°26' W 079°56'0 0.0
2016-Dec-02 13:31N 09°26' W 079°56'0 0.0
2016-Dec-02 12:31N 09°26' W 079°56'0 0.1
2016-Dec-02 11:31N 09°26' W 079°56'0 0.1
2016-Dec-02 08:28N 09°26' W 079°55'0 0.2
2016-Dec-02 07:31N 09°26' W 079°55'2 1.8
2016-Dec-02 06:33N 09°28' W 079°55'  
2016-Nov-28 21:32N 10°53' W 061°58'1312.8
2016-Nov-28 20:33N 10°44' W 061°49'1413.7
2016-Nov-28 19:33N 10°31' W 061°47'1413.9
2016-Nov-28 18:34N 10°23' W 061°35'6 5.5
2016-Nov-28 17:32N 10°19' W 061°30'0 0.0
2016-Nov-28 16:32N 10°19' W 061°30'0 0.1
2016-Nov-28 15:33N 10°20' W 061°30'1 0.0
2016-Nov-27 05:11N 10°20' W 061°29'0 0.7
2016-Nov-27 04:33N 10°20' W 061°29'1 1.1
2016-Nov-27 03:30N 10°19' W 061°30'0 0.0
2016-Nov-27 02:18N 10°19' W 061°30'0 0.1
2016-Nov-27 01:33N 10°19' W 061°30'0 0.0
2016-Nov-27 00:33N 10°19' W 061°30'0 0.1
2016-Nov-26 23:30N 10°19' W 061°30'0 0.0
2016-Nov-26 22:27N 10°19' W 061°30'0 0.0
2016-Nov-26 21:33N 10°19' W 061°30'0 0.0
2016-Nov-26 20:33N 10°19' W 061°30'0 0.1
2016-Nov-26 19:30N 10°19' W 061°30'3 3.3
2016-Nov-26 18:33N 10°20' W 061°33'7 6.5
2016-Nov-26 17:34N 10°25' W 061°38'1515.3
2016-Nov-26 16:34N 10°37' W 061°47'1313.1
2016-Nov-26 15:33N 10°49' W 061°53'1514.3
2016-Nov-26 14:30N 10°57' W 062°06'  

Dump ship's entire track history